Emerald Coast — WDC9127 — position and weather

sailwx.info

Track history (hours):
 
Tides and Currents Weather Stations Pressure Air Temp Water Temp Dewpoint Dewpoint Depression Visibility Wind Speed Wind Dir Waves Ship Positions

Emerald Coast

Owner: Dann Marine Towing, LC, Chesapeake City, MD. More information available from US FCC via Universal Licensing System and Coast Guard Vessel Documentation Center.

Last reported at 2016-May-02 07:34 UTC. Time now 2016-May-02 08:18 UTC.
Position N 40°38' W 074°09'.

Length 28 m; draft 3 m.

Type: Towing. MMSI: 367097920.

Date/timePositionNaut miles runAvg speedWind from/ knotsBaromVisibWave heightAir tempDewpointWater temp
2016-May-02 07:34N 40°38' W 074°09'2 2.5
2016-May-02 06:34N 40°41' W 074°08'4 4.4
2016-May-02 05:34N 40°38' W 074°03'3 2.7
2016-May-02 04:33N 40°40' W 074°00'0 0.0
2016-May-02 03:33N 40°40' W 074°00'0 0.0
2016-May-02 02:33N 40°40' W 074°00'1 1.2
2016-May-02 01:34N 40°39' W 074°02'5 5.3
2016-May-02 00:32N 40°39' W 074°09'2 2.5
2016-May-01 23:34N 40°42' W 074°09'1 0.6
2016-May-01 22:33N 40°42' W 074°08'0 0.0
2016-May-01 20:18N 40°42' W 074°08'0 0.0
2016-May-01 19:34N 40°42' W 074°08'0 0.0
2016-May-01 18:25N 40°42' W 074°08'0 0.0
2016-May-01 17:28N 40°42' W 074°08'1 1.6
2016-May-01 16:33N 40°40' W 074°08'3 0.3
2016-May-01 05:33N 40°39' W 074°05'1 0.9
2016-May-01 04:33N 40°39' W 074°03'2 2.4
2016-May-01 03:33N 40°39' W 074°07'1 0.6
2016-May-01 02:31N 40°39' W 074°07'0 0.0
2016-May-01 01:33N 40°39' W 074°07'0 0.0
2016-May-01 00:29N 40°39' W 074°07'0 0.0
2016-Apr-30 23:33N 40°39' W 074°07'0 0.0
2016-Apr-30 22:33N 40°39' W 074°07'0 0.0
2016-Apr-30 21:34N 40°39' W 074°07'0 0.0
2016-Apr-30 20:33N 40°39' W 074°07'0 0.0
2016-Apr-30 19:33N 40°39' W 074°07'3 2.8
2016-Apr-30 18:34N 40°39' W 074°04'3 2.6
2016-Apr-30 17:34N 40°40' W 074°00'0 0.0
2016-Apr-30 16:33N 40°40' W 074°00'1 0.6
2016-Apr-30 15:33N 40°40' W 074°01'5 1.6
2016-Apr-30 12:30N 40°39' W 074°07'6 6.0
2016-Apr-30 11:33N 40°40' W 074°00'5 4.6
2016-Apr-30 10:34N 40°39' W 074°06'3 3.0
2016-Apr-30 09:34N 40°41' W 074°08'0 0.0
2016-Apr-30 08:34N 40°41' W 074°08'0 0.0
2016-Apr-30 07:33N 40°41' W 074°08'0 0.0
2016-Apr-30 06:33N 40°41' W 074°08'0 0.0
2016-Apr-30 05:33N 40°41' W 074°08'0 0.0
2016-Apr-30 04:34N 40°41' W 074°08'0 0.0
2016-Apr-30 03:32N 40°41' W 074°08'0 0.3
2016-Apr-30 02:33N 40°41' W 074°08'3 2.7
2016-Apr-30 01:33N 40°39' W 074°06'5 4.6
2016-Apr-30 00:33N 40°40' W 074°00'0 0.0
2016-Apr-29 23:33N 40°40' W 074°00'0 0.0
2016-Apr-29 22:34N 40°40' W 074°00'0 0.0
2016-Apr-29 21:33N 40°40' W 074°00'3 3.3
2016-Apr-29 20:33N 40°39' W 074°04'1 0.3
2016-Apr-29 16:33N 40°39' W 074°06'1 0.9
2016-Apr-29 15:33N 40°39' W 074°07'3 2.9
2016-Apr-29 14:30N 40°39' W 074°11'0 0.0
2016-Apr-29 12:32N 40°39' W 074°11'0 0.0
2016-Apr-29 11:33N 40°39' W 074°11'0 0.3
2016-Apr-29 10:31N 40°39' W 074°11'3 3.5
2016-Apr-29 09:33N 40°39' W 074°07'2 2.2
2016-Apr-29 08:32N 40°38' W 074°04'0 0.1
2016-Apr-29 07:30N 40°38' W 074°04'0 0.2
2016-Apr-29 06:31N 40°38' W 074°04'0 0.0
2016-Apr-29 05:34N 40°38' W 074°04'0 0.0
2016-Apr-29 04:34N 40°38' W 074°04'1 0.8
2016-Apr-29 03:29N 40°39' W 074°04'3 3.5
2016-Apr-29 02:30N 40°40' W 074°09'1 1.5
2016-Apr-29 01:30N 40°41' W 074°09'1 0.3
2016-Apr-28 23:11N 40°41' W 074°09'2 2.1
2016-Apr-28 22:28N 40°39' W 074°09'2 1.8
2016-Apr-28 21:31N 40°41' W 074°09'3 2.8
2016-Apr-28 20:32N 40°39' W 074°07'1 1.3
2016-Apr-28 19:32N 40°39' W 074°05'3 0.3
2016-Apr-28 11:33N 40°40' W 074°09'1 0.9
2016-Apr-28 10:33N 40°40' W 074°08'2 2.1
2016-Apr-28 09:33N 40°39' W 074°06'3 3.3
2016-Apr-28 08:33N 40°39' W 074°02'1 1.3
2016-Apr-28 07:33N 40°40' W 074°00'0 0.0
2016-Apr-28 06:33N 40°40' W 074°00'0 0.2
2016-Apr-28 05:34N 40°40' W 074°01'6 6.2
2016-Apr-28 04:32N 40°39' W 074°09'1 0.8
2016-Apr-28 03:34N 40°40' W 074°09'1 1.2
2016-Apr-28 02:34N 40°39' W 074°09'1 0.2
2016-Apr-27 22:20N 40°39' W 074°07'0 0.1
2016-Apr-27 21:33N 40°39' W 074°07'4 3.8
2016-Apr-27 20:33N 40°39' W 074°02'2 1.8
2016-Apr-27 19:33N 40°40' W 074°00'0 0.0
2016-Apr-27 18:33N 40°40' W 074°00'3 2.6
2016-Apr-27 17:34N 40°40' W 074°03'4 3.9
2016-Apr-27 16:33N 40°40' W 074°09'0 0.0
2016-Apr-27 15:33N 40°40' W 074°09'0 0.0
2016-Apr-27 14:33N 40°40' W 074°09'0 0.0
2016-Apr-27 12:21N 40°40' W 074°09'0 0.0
2016-Apr-27 11:34N 40°40' W 074°09'0 0.4
2016-Apr-27 10:33N 40°40' W 074°08'1 1.3
2016-Apr-27 09:33N 40°41' W 074°09'0 0.0
2016-Apr-27 08:33N 40°41' W 074°09'0 0.0
2016-Apr-27 07:33N 40°41' W 074°09'0 0.0
2016-Apr-27 06:18N 40°41' W 074°09'1 1.8
2016-Apr-27 05:33N 40°40' W 074°08'0 0.0
2016-Apr-27 04:33N 40°40' W 074°09'2 0.4
2016-Apr-27 00:24N 40°39' W 074°07'0 0.0
2016-Apr-26 23:20N 40°39' W 074°07'2 2.3
2016-Apr-26 22:33N 40°40' W 074°08'1 1.3
2016-Apr-26 21:33N 40°41' W 074°09'0 0.0
2016-Apr-26 19:29N 40°41' W 074°09'0 0.0
2016-Apr-26 18:33N 40°41' W 074°09'3 3.0
2016-Apr-26 17:33N 40°39' W 074°07'0 0.1
2016-Apr-26 15:28N 40°39' W 074°07'1 1.6
2016-Apr-26 14:34N 40°39' W 074°05'2 1.6
2016-Apr-26 13:33N 40°40' W 074°04'2 1.7
2016-Apr-26 12:34N 40°39' W 074°05'3 2.7
2016-Apr-26 11:33N 40°40' W 074°09'0 0.0
2016-Apr-26 10:34N 40°40' W 074°09'0 0.0
2016-Apr-26 09:33N 40°40' W 074°09'0 0.0
2016-Apr-26 08:34N 40°40' W 074°09'0 0.0
2016-Apr-26 07:33N 40°40' W 074°09'0 0.0
2016-Apr-26 06:33N 40°40' W 074°09'0 0.0
2016-Apr-26 05:33N 40°40' W 074°09'0 0.0
2016-Apr-26 04:33N 40°40' W 074°09'1 1.1
2016-Apr-26 03:33N 40°39' W 074°08'3 3.2
2016-Apr-26 02:33N 40°39' W 074°04'0 0.0
2016-Apr-26 01:33N 40°39' W 074°04'0 0.1
2016-Apr-26 00:33N 40°38' W 074°04'0 0.0
2016-Apr-25 23:33N 40°38' W 074°04'0 0.2
2016-Apr-25 22:34N 40°38' W 074°04'0 0.1
2016-Apr-25 21:34N 40°38' W 074°04'2 1.7
2016-Apr-25 20:34N 40°39' W 074°06'4 3.6
2016-Apr-25 19:33N 40°41' W 074°10'0 0.1
2016-Apr-25 18:33N 40°41' W 074°09'0 0.0
2016-Apr-25 17:33N 40°41' W 074°09'0 0.0
2016-Apr-25 16:33N 40°41' W 074°09'0 0.0
2016-Apr-25 15:33N 40°41' W 074°09'0 0.0
2016-Apr-25 14:32N 40°41' W 074°09'0 0.0
2016-Apr-25 13:33N 40°41' W 074°09'0 0.0
2016-Apr-25 12:34N 40°41' W 074°09'0 0.0
2016-Apr-25 11:29N 40°41' W 074°09'0 0.0
2016-Apr-25 10:33N 40°41' W 074°09'0 0.0
2016-Apr-25 09:31N 40°41' W 074°09'1 0.7
2016-Apr-25 08:27N 40°42' W 074°09'0 0.1
2016-Apr-25 07:34N 40°42' W 074°09'0 0.0
2016-Apr-25 06:33N 40°42' W 074°09'0 0.0
2016-Apr-25 05:33N 40°42' W 074°09'0 0.0
2016-Apr-25 04:33N 40°42' W 074°09'0 0.0
2016-Apr-25 03:33N 40°42' W 074°09'0 0.0
2016-Apr-25 02:33N 40°42' W 074°09'0 0.0
2016-Apr-25 01:31N 40°42' W 074°09'1 0.8
2016-Apr-25 00:34N 40°41' W 074°09'0 0.0
2016-Apr-24 23:34N 40°41' W 074°09'0 0.0
2016-Apr-24 22:34N 40°41' W 074°09'0 0.0
2016-Apr-24 21:33N 40°41' W 074°09'0 0.0
2016-Apr-24 20:32N 40°41' W 074°09'0 0.4
2016-Apr-24 19:34N 40°41' W 074°09'0 0.0
2016-Apr-24 18:33N 40°41' W 074°09'0 0.0
2016-Apr-24 17:34N 40°41' W 074°09'0 0.0
2016-Apr-24 16:33N 40°41' W 074°09'2 2.4
2016-Apr-24 15:33N 40°39' W 074°09'2 2.2
2016-Apr-24 14:34N 40°39' W 074°06'3 0.4
2016-Apr-24 07:33N 40°40' W 074°03'4 4.1
2016-Apr-24 06:34N 40°39' W 074°08'3 2.9
2016-Apr-24 05:33N 40°41' W 074°07'0 0.4
2016-Apr-24 04:33N 40°42' W 074°07'3 2.7
2016-Apr-24 03:33N 40°39' W 074°09'1 0.3
2016-Apr-23 22:28N 40°39' W 074°07'2 2.4
2016-Apr-23 21:33N 40°41' W 074°08'2 1.9
2016-Apr-23 20:33N 40°39' W 074°09'5 5.1
2016-Apr-23 19:33N 40°39' W 074°02'2 1.8
2016-Apr-23 18:33N 40°40' W 074°00'0 0.3
2016-Apr-23 17:34N 40°40' W 074°00'4 4.4
2016-Apr-23 16:34N 40°39' W 074°06'1 0.7
2016-Apr-23 15:17N 40°39' W 074°07'0 0.0
2016-Apr-23 14:29N 40°39' W 074°07'0 0.0
2016-Apr-23 13:31N 40°39' W 074°07'1 1.0
2016-Apr-23 12:33N 40°39' W 074°06'3 3.2
2016-Apr-23 11:33N 40°41' W 074°09'0 0.2
2016-Apr-23 10:34N 40°41' W 074°09'0 0.0
2016-Apr-23 09:33N 40°41' W 074°09'0 0.0
2016-Apr-23 08:33N 40°41' W 074°09'0 0.0
2016-Apr-23 07:26N 40°41' W 074°09'0 0.0
2016-Apr-23 06:28N 40°41' W 074°09'0 0.0
2016-Apr-23 05:33N 40°41' W 074°09'0 0.0
2016-Apr-23 04:34N 40°41' W 074°09'0 0.0
2016-Apr-23 03:34N 40°41' W 074°09'0 0.0
2016-Apr-23 02:31N 40°41' W 074°09'0 0.0
2016-Apr-23 01:33N 40°41' W 074°09'0 0.0
2016-Apr-23 00:33N 40°41' W 074°09'0 0.0
2016-Apr-22 23:33N 40°41' W 074°09'0 0.0
2016-Apr-22 22:30N 40°41' W 074°09'1 1.1
2016-Apr-22 21:32N 40°41' W 074°08'1 1.0
2016-Apr-22 20:33N 40°41' W 074°09'0 0.0
2016-Apr-22 19:32N 40°41' W 074°09'0 0.0
2016-Apr-22 18:08N 40°41' W 074°09'0 0.0
2016-Apr-22 17:33N 40°41' W 074°09'0 0.0
2016-Apr-22 16:25N 40°41' W 074°09'0 0.1
2016-Apr-22 15:23N 40°41' W 074°09'0 0.0
2016-Apr-22 14:32N 40°41' W 074°09'0 0.0
2016-Apr-22 13:33N 40°41' W 074°09'0 0.0
2016-Apr-22 12:33N 40°41' W 074°09'0 0.0
2016-Apr-22 11:33N 40°41' W 074°09'0 0.0
2016-Apr-22 10:33N 40°41' W 074°09'0 0.0
2016-Apr-22 09:33N 40°41' W 074°09'0 0.0
2016-Apr-22 08:33N 40°41' W 074°09'  
Track history (hours):
 
Tides and Currents Weather Stations Pressure Air Temp Water Temp Dewpoint Dewpoint Depression Visibility Wind Speed Wind Dir Waves Ship Positions

Emerald Coast

Owner: Dann Marine Towing, LC, Chesapeake City, MD. More information available from US FCC via Universal Licensing System and Coast Guard Vessel Documentation Center.

Last reported at 2016-May-02 07:34 UTC. Time now 2016-May-02 08:18 UTC.
Position N 40°38' W 074°09'.

Length 28 m; draft 3 m.

Type: Towing. MMSI: 367097920.

Date/timePositionNaut miles runAvg speedWind from/ knotsBaromVisibWave heightAir tempDewpointWater temp
2016-May-02 07:34N 40°38' W 074°09'2 2.5
2016-May-02 06:34N 40°41' W 074°08'4 4.4
2016-May-02 05:34N 40°38' W 074°03'3 2.7
2016-May-02 04:33N 40°40' W 074°00'0 0.0
2016-May-02 03:33N 40°40' W 074°00'0 0.0
2016-May-02 02:33N 40°40' W 074°00'1 1.2
2016-May-02 01:34N 40°39' W 074°02'5 5.3
2016-May-02 00:32N 40°39' W 074°09'2 2.5
2016-May-01 23:34N 40°42' W 074°09'1 0.6
2016-May-01 22:33N 40°42' W 074°08'0 0.0
2016-May-01 20:18N 40°42' W 074°08'0 0.0
2016-May-01 19:34N 40°42' W 074°08'0 0.0
2016-May-01 18:25N 40°42' W 074°08'0 0.0
2016-May-01 17:28N 40°42' W 074°08'1 1.6
2016-May-01 16:33N 40°40' W 074°08'3 0.3
2016-May-01 05:33N 40°39' W 074°05'1 0.9
2016-May-01 04:33N 40°39' W 074°03'2 2.4
2016-May-01 03:33N 40°39' W 074°07'1 0.6
2016-May-01 02:31N 40°39' W 074°07'0 0.0
2016-May-01 01:33N 40°39' W 074°07'0 0.0
2016-May-01 00:29N 40°39' W 074°07'0 0.0
2016-Apr-30 23:33N 40°39' W 074°07'0 0.0
2016-Apr-30 22:33N 40°39' W 074°07'0 0.0
2016-Apr-30 21:34N 40°39' W 074°07'0 0.0
2016-Apr-30 20:33N 40°39' W 074°07'0 0.0
2016-Apr-30 19:33N 40°39' W 074°07'3 2.8
2016-Apr-30 18:34N 40°39' W 074°04'3 2.6
2016-Apr-30 17:34N 40°40' W 074°00'0 0.0
2016-Apr-30 16:33N 40°40' W 074°00'1 0.6
2016-Apr-30 15:33N 40°40' W 074°01'5 1.6
2016-Apr-30 12:30N 40°39' W 074°07'6 6.0
2016-Apr-30 11:33N 40°40' W 074°00'5 4.6
2016-Apr-30 10:34N 40°39' W 074°06'3 3.0
2016-Apr-30 09:34N 40°41' W 074°08'0 0.0
2016-Apr-30 08:34N 40°41' W 074°08'0 0.0
2016-Apr-30 07:33N 40°41' W 074°08'0 0.0
2016-Apr-30 06:33N 40°41' W 074°08'0 0.0
2016-Apr-30 05:33N 40°41' W 074°08'0 0.0
2016-Apr-30 04:34N 40°41' W 074°08'0 0.0
2016-Apr-30 03:32N 40°41' W 074°08'0 0.3
2016-Apr-30 02:33N 40°41' W 074°08'3 2.7
2016-Apr-30 01:33N 40°39' W 074°06'5 4.6
2016-Apr-30 00:33N 40°40' W 074°00'0 0.0
2016-Apr-29 23:33N 40°40' W 074°00'0 0.0
2016-Apr-29 22:34N 40°40' W 074°00'0 0.0
2016-Apr-29 21:33N 40°40' W 074°00'3 3.3
2016-Apr-29 20:33N 40°39' W 074°04'1 0.3
2016-Apr-29 16:33N 40°39' W 074°06'1 0.9
2016-Apr-29 15:33N 40°39' W 074°07'3 2.9
2016-Apr-29 14:30N 40°39' W 074°11'0 0.0
2016-Apr-29 12:32N 40°39' W 074°11'0 0.0
2016-Apr-29 11:33N 40°39' W 074°11'0 0.3
2016-Apr-29 10:31N 40°39' W 074°11'3 3.5
2016-Apr-29 09:33N 40°39' W 074°07'2 2.2
2016-Apr-29 08:32N 40°38' W 074°04'0 0.1
2016-Apr-29 07:30N 40°38' W 074°04'0 0.2
2016-Apr-29 06:31N 40°38' W 074°04'0 0.0
2016-Apr-29 05:34N 40°38' W 074°04'0 0.0
2016-Apr-29 04:34N 40°38' W 074°04'1 0.8
2016-Apr-29 03:29N 40°39' W 074°04'3 3.5
2016-Apr-29 02:30N 40°40' W 074°09'1 1.5
2016-Apr-29 01:30N 40°41' W 074°09'1 0.3
2016-Apr-28 23:11N 40°41' W 074°09'2 2.1
2016-Apr-28 22:28N 40°39' W 074°09'2 1.8
2016-Apr-28 21:31N 40°41' W 074°09'3 2.8
2016-Apr-28 20:32N 40°39' W 074°07'1 1.3
2016-Apr-28 19:32N 40°39' W 074°05'3 0.3
2016-Apr-28 11:33N 40°40' W 074°09'1 0.9
2016-Apr-28 10:33N 40°40' W 074°08'2 2.1
2016-Apr-28 09:33N 40°39' W 074°06'3 3.3
2016-Apr-28 08:33N 40°39' W 074°02'1 1.3
2016-Apr-28 07:33N 40°40' W 074°00'0 0.0
2016-Apr-28 06:33N 40°40' W 074°00'0 0.2
2016-Apr-28 05:34N 40°40' W 074°01'6 6.2
2016-Apr-28 04:32N 40°39' W 074°09'1 0.8
2016-Apr-28 03:34N 40°40' W 074°09'1 1.2
2016-Apr-28 02:34N 40°39' W 074°09'1 0.2
2016-Apr-27 22:20N 40°39' W 074°07'0 0.1
2016-Apr-27 21:33N 40°39' W 074°07'4 3.8
2016-Apr-27 20:33N 40°39' W 074°02'2 1.8
2016-Apr-27 19:33N 40°40' W 074°00'0 0.0
2016-Apr-27 18:33N 40°40' W 074°00'3 2.6
2016-Apr-27 17:34N 40°40' W 074°03'4 3.9
2016-Apr-27 16:33N 40°40' W 074°09'0 0.0
2016-Apr-27 15:33N 40°40' W 074°09'0 0.0
2016-Apr-27 14:33N 40°40' W 074°09'0 0.0
2016-Apr-27 12:21N 40°40' W 074°09'0 0.0
2016-Apr-27 11:34N 40°40' W 074°09'0 0.4
2016-Apr-27 10:33N 40°40' W 074°08'1 1.3
2016-Apr-27 09:33N 40°41' W 074°09'0 0.0
2016-Apr-27 08:33N 40°41' W 074°09'0 0.0
2016-Apr-27 07:33N 40°41' W 074°09'0 0.0
2016-Apr-27 06:18N 40°41' W 074°09'1 1.8
2016-Apr-27 05:33N 40°40' W 074°08'0 0.0
2016-Apr-27 04:33N 40°40' W 074°09'2 0.4
2016-Apr-27 00:24N 40°39' W 074°07'0 0.0
2016-Apr-26 23:20N 40°39' W 074°07'2 2.3
2016-Apr-26 22:33N 40°40' W 074°08'1 1.3
2016-Apr-26 21:33N 40°41' W 074°09'0 0.0
2016-Apr-26 19:29N 40°41' W 074°09'0 0.0
2016-Apr-26 18:33N 40°41' W 074°09'3 3.0
2016-Apr-26 17:33N 40°39' W 074°07'0 0.1
2016-Apr-26 15:28N 40°39' W 074°07'1 1.6
2016-Apr-26 14:34N 40°39' W 074°05'2 1.6
2016-Apr-26 13:33N 40°40' W 074°04'2 1.7
2016-Apr-26 12:34N 40°39' W 074°05'3 2.7
2016-Apr-26 11:33N 40°40' W 074°09'0 0.0
2016-Apr-26 10:34N 40°40' W 074°09'0 0.0
2016-Apr-26 09:33N 40°40' W 074°09'0 0.0
2016-Apr-26 08:34N 40°40' W 074°09'0 0.0
2016-Apr-26 07:33N 40°40' W 074°09'0 0.0
2016-Apr-26 06:33N 40°40' W 074°09'0 0.0
2016-Apr-26 05:33N 40°40' W 074°09'0 0.0
2016-Apr-26 04:33N 40°40' W 074°09'1 1.1
2016-Apr-26 03:33N 40°39' W 074°08'3 3.2
2016-Apr-26 02:33N 40°39' W 074°04'0 0.0
2016-Apr-26 01:33N 40°39' W 074°04'0 0.1
2016-Apr-26 00:33N 40°38' W 074°04'0 0.0
2016-Apr-25 23:33N 40°38' W 074°04'0 0.2
2016-Apr-25 22:34N 40°38' W 074°04'0 0.1
2016-Apr-25 21:34N 40°38' W 074°04'2 1.7
2016-Apr-25 20:34N 40°39' W 074°06'4 3.6
2016-Apr-25 19:33N 40°41' W 074°10'0 0.1
2016-Apr-25 18:33N 40°41' W 074°09'0 0.0
2016-Apr-25 17:33N 40°41' W 074°09'0 0.0
2016-Apr-25 16:33N 40°41' W 074°09'0 0.0
2016-Apr-25 15:33N 40°41' W 074°09'0 0.0
2016-Apr-25 14:32N 40°41' W 074°09'0 0.0
2016-Apr-25 13:33N 40°41' W 074°09'0 0.0
2016-Apr-25 12:34N 40°41' W 074°09'0 0.0
2016-Apr-25 11:29N 40°41' W 074°09'0 0.0
2016-Apr-25 10:33N 40°41' W 074°09'0 0.0
2016-Apr-25 09:31N 40°41' W 074°09'1 0.7
2016-Apr-25 08:27N 40°42' W 074°09'0 0.1
2016-Apr-25 07:34N 40°42' W 074°09'0 0.0
2016-Apr-25 06:33N 40°42' W 074°09'0 0.0
2016-Apr-25 05:33N 40°42' W 074°09'0 0.0
2016-Apr-25 04:33N 40°42' W 074°09'0 0.0
2016-Apr-25 03:33N 40°42' W 074°09'0 0.0
2016-Apr-25 02:33N 40°42' W 074°09'0 0.0
2016-Apr-25 01:31N 40°42' W 074°09'1 0.8
2016-Apr-25 00:34N 40°41' W 074°09'0 0.0
2016-Apr-24 23:34N 40°41' W 074°09'0 0.0
2016-Apr-24 22:34N 40°41' W 074°09'0 0.0
2016-Apr-24 21:33N 40°41' W 074°09'0 0.0
2016-Apr-24 20:32N 40°41' W 074°09'0 0.4
2016-Apr-24 19:34N 40°41' W 074°09'0 0.0
2016-Apr-24 18:33N 40°41' W 074°09'0 0.0
2016-Apr-24 17:34N 40°41' W 074°09'0 0.0
2016-Apr-24 16:33N 40°41' W 074°09'2 2.4
2016-Apr-24 15:33N 40°39' W 074°09'2 2.2
2016-Apr-24 14:34N 40°39' W 074°06'3 0.4
2016-Apr-24 07:33N 40°40' W 074°03'4 4.1
2016-Apr-24 06:34N 40°39' W 074°08'3 2.9
2016-Apr-24 05:33N 40°41' W 074°07'0 0.4
2016-Apr-24 04:33N 40°42' W 074°07'3 2.7
2016-Apr-24 03:33N 40°39' W 074°09'1 0.3
2016-Apr-23 22:28N 40°39' W 074°07'2 2.4
2016-Apr-23 21:33N 40°41' W 074°08'2 1.9
2016-Apr-23 20:33N 40°39' W 074°09'5 5.1
2016-Apr-23 19:33N 40°39' W 074°02'2 1.8
2016-Apr-23 18:33N 40°40' W 074°00'0 0.3
2016-Apr-23 17:34N 40°40' W 074°00'4 4.4
2016-Apr-23 16:34N 40°39' W 074°06'1 0.7
2016-Apr-23 15:17N 40°39' W 074°07'0 0.0
2016-Apr-23 14:29N 40°39' W 074°07'0 0.0
2016-Apr-23 13:31N 40°39' W 074°07'1 1.0
2016-Apr-23 12:33N 40°39' W 074°06'3 3.2
2016-Apr-23 11:33N 40°41' W 074°09'0 0.2
2016-Apr-23 10:34N 40°41' W 074°09'0 0.0
2016-Apr-23 09:33N 40°41' W 074°09'0 0.0
2016-Apr-23 08:33N 40°41' W 074°09'0 0.0
2016-Apr-23 07:26N 40°41' W 074°09'0 0.0
2016-Apr-23 06:28N 40°41' W 074°09'0 0.0
2016-Apr-23 05:33N 40°41' W 074°09'0 0.0
2016-Apr-23 04:34N 40°41' W 074°09'0 0.0
2016-Apr-23 03:34N 40°41' W 074°09'0 0.0
2016-Apr-23 02:31N 40°41' W 074°09'0 0.0
2016-Apr-23 01:33N 40°41' W 074°09'0 0.0
2016-Apr-23 00:33N 40°41' W 074°09'0 0.0
2016-Apr-22 23:33N 40°41' W 074°09'0 0.0
2016-Apr-22 22:30N 40°41' W 074°09'1 1.1
2016-Apr-22 21:32N 40°41' W 074°08'1 1.0
2016-Apr-22 20:33N 40°41' W 074°09'0 0.0
2016-Apr-22 19:32N 40°41' W 074°09'0 0.0
2016-Apr-22 18:08N 40°41' W 074°09'0 0.0
2016-Apr-22 17:33N 40°41' W 074°09'0 0.0
2016-Apr-22 16:25N 40°41' W 074°09'0 0.1
2016-Apr-22 15:23N 40°41' W 074°09'0 0.0
2016-Apr-22 14:32N 40°41' W 074°09'0 0.0
2016-Apr-22 13:33N 40°41' W 074°09'0 0.0
2016-Apr-22 12:33N 40°41' W 074°09'0 0.0
2016-Apr-22 11:33N 40°41' W 074°09'0 0.0
2016-Apr-22 10:33N 40°41' W 074°09'0 0.0
2016-Apr-22 09:33N 40°41' W 074°09'0 0.0
2016-Apr-22 08:33N 40°41' W 074°09'  

Dump ship's entire track history